createdAt,value
2019-03-11T00:00:37.374Z,85.51
2019-03-11T00:04:03.535Z,85.53
2019-03-11T00:05:45.989Z,85.69
2019-03-11T00:11:19.692Z,85.96
2019-03-11T00:14:09.694Z,86.12
2019-03-11T00:16:44.045Z,86.21
2019-03-11T00:19:16.928Z,86.28
2019-03-11T00:21:52.029Z,86.29
2019-03-11T00:24:22.423Z,86.30
2019-03-11T00:26:53.162Z,86.29
2019-03-11T00:29:23.540Z,86.15
2019-03-11T00:31:56.106Z,86.08
2019-03-11T00:34:28.436Z,85.82
2019-03-11T00:37:20.474Z,84.91
2019-03-11T00:39:52.154Z,83.68
2019-03-11T00:42:30.440Z,80.40
2019-03-11T00:45:00.691Z,78.34
2019-03-11T00:47:33.063Z,76.42
2019-03-11T00:50:05.176Z,76.08
2019-03-11T00:52:43.073Z,75.17
2019-03-11T00:55:09.594Z,74.82
2019-03-11T00:57:48.430Z,75.43
2019-03-11T01:00:30.413Z,76.02
2019-03-11T01:03:02.745Z,75.04
2019-03-11T01:05:34.746Z,74.78
2019-03-11T01:08:05.141Z,74.42
2019-03-11T01:10:35.483Z,74.42
2019-03-11T01:13:10.516Z,74.38
2019-03-11T01:15:40.864Z,74.22
2019-03-11T01:18:15.787Z,74.04
2019-03-11T01:20:44.996Z,74.53
2019-03-11T01:23:15.372Z,75.24
2019-03-11T01:25:46.339Z,75.91
2019-03-11T01:28:20.833Z,75.90
2019-03-11T01:30:50.253Z,76.06
2019-03-11T01:33:20.641Z,76.56
2019-03-11T01:35:50.978Z,76.82
2019-03-11T01:38:21.341Z,77.29
2019-03-11T01:40:53.082Z,77.50
2019-03-11T01:43:23.454Z,77.28
2019-03-11T01:45:54.584Z,77.32
2019-03-11T01:48:31.028Z,77.64
2019-03-11T01:51:01.821Z,77.83
2019-03-11T01:53:41.078Z,77.62
2019-03-11T01:56:11.227Z,77.39
2019-03-11T01:58:43.671Z,77.39
2019-03-11T02:01:14.285Z,77.08
2019-03-11T02:03:48.858Z,76.48
2019-03-11T02:06:19.161Z,76.74
2019-03-11T02:08:49.531Z,76.51
2019-03-11T02:11:20.663Z,75.69
2019-03-11T02:14:01.074Z,75.73
2019-03-11T02:16:31.736Z,75.46
2019-03-11T02:19:05.485Z,75.71
2019-03-11T02:21:38.008Z,76.04
2019-03-11T02:24:24.246Z,76.47
2019-03-11T02:26:51.649Z,76.94
2019-03-11T02:29:24.208Z,77.44
2019-03-11T02:31:54.618Z,77.80
2019-03-11T02:34:25.048Z,78.08
2019-03-11T02:36:55.712Z,78.23
2019-03-11T02:39:29.199Z,78.48
2019-03-11T02:42:01.724Z,78.98
2019-03-11T02:44:36.078Z,79.21
2019-03-11T02:47:06.037Z,79.47
2019-03-11T02:49:38.264Z,79.72
2019-03-11T02:52:08.889Z,79.67
2019-03-11T02:54:41.310Z,79.84
2019-03-11T02:57:11.924Z,79.98
2019-03-11T02:59:45.263Z,79.86
2019-03-11T03:02:42.004Z,80.06
2019-03-11T03:05:38.109Z,80.06
2019-03-11T03:08:00.763Z,79.76
2019-03-11T03:10:35.999Z,79.49
2019-03-11T03:13:08.064Z,79.59
2019-03-11T03:15:54.074Z,79.50
2019-03-11T03:18:16.270Z,79.55
2019-03-11T03:21:04.437Z,79.78
2019-03-11T03:23:45.387Z,80.01
2019-03-11T03:26:15.752Z,80.23
2019-03-11T03:28:48.937Z,80.25
2019-03-11T03:31:19.314Z,80.35
2019-03-11T03:33:58.204Z,80.54
2019-03-11T03:36:24.126Z,80.70
2019-03-11T03:38:58.517Z,80.65
2019-03-11T03:41:29.005Z,80.54
2019-03-11T03:43:59.419Z,80.18
2019-03-11T03:46:29.788Z,80.10
2019-03-11T03:49:05.589Z,80.22
2019-03-11T03:51:37.566Z,79.95
2019-03-11T03:54:08.241Z,79.95
2019-03-11T03:56:39.033Z,80.01
2019-03-11T03:59:28.507Z,80.09
2019-03-11T04:01:49.100Z,80.19
2019-03-11T04:04:40.092Z,80.30
2019-03-11T04:07:10.711Z,80.05
2019-03-11T04:09:48.610Z,79.80
2019-03-11T04:12:20.736Z,79.46
2019-03-11T04:15:00.496Z,78.48
2019-03-11T04:17:29.434Z,78.02
2019-03-11T04:20:06.414Z,78.25
2019-03-11T04:22:33.913Z,79.18
2019-03-11T04:25:13.378Z,79.18
2019-03-11T04:27:42.580Z,79.51
2019-03-11T04:30:20.334Z,79.51
2019-03-11T04:32:51.249Z,79.57
2019-03-11T04:35:25.164Z,79.57
2019-03-11T04:37:55.530Z,79.66
2019-03-11T04:40:52.411Z,79.19
2019-03-11T04:43:15.082Z,78.58
2019-03-11T04:45:51.334Z,77.42
2019-03-11T04:48:21.676Z,77.42
2019-03-11T04:50:54.625Z,76.70
2019-03-11T04:53:24.121Z,76.56
2019-03-11T04:56:06.469Z,76.77
2019-03-11T04:58:35.468Z,77.47
2019-03-11T05:01:13.712Z,77.48
2019-03-11T05:03:46.514Z,77.14
2019-03-11T05:06:21.748Z,77.51
2019-03-11T05:09:05.054Z,78.02
2019-03-11T05:11:36.576Z,78.25
2019-03-11T05:14:10.236Z,78.59
2019-03-11T05:16:39.587Z,78.67
2019-03-11T05:19:17.144Z,78.89
2019-03-11T05:21:46.763Z,78.85
2019-03-11T05:24:24.689Z,78.96
2019-03-11T05:26:55.232Z,78.67
2019-03-11T05:29:29.259Z,78.38
2019-03-11T05:31:59.649Z,77.71
2019-03-11T05:34:37.488Z,77.03
2019-03-11T05:37:04.811Z,76.58
2019-03-11T05:39:40.437Z,76.51
2019-03-11T05:42:10.846Z,76.41
2019-03-11T05:44:50.863Z,76.61
2019-03-11T05:47:17.945Z,77.08
2019-03-11T05:49:49.942Z,78.78
2019-03-11T05:52:20.905Z,80.27
2019-03-11T05:55:01.377Z,81.33
2019-03-11T05:57:32.536Z,82.06
2019-03-11T06:00:47.015Z,82.97
2019-03-11T06:02:43.315Z,83.43
2019-03-11T06:05:16.291Z,83.87
2019-03-11T06:07:48.652Z,84.21
2019-03-11T06:11:14.496Z,84.49
2019-03-11T06:12:54.968Z,84.65
2019-03-11T06:15:28.767Z,84.49
2019-03-11T06:18:05.067Z,84.49
2019-03-11T06:20:51.702Z,85.09
2019-03-11T06:23:22.333Z,85.37
2019-03-11T06:25:52.755Z,85.37
2019-03-11T06:28:23.089Z,85.45
2019-03-11T06:31:00.645Z,85.49
2019-03-11T06:33:33.017Z,85.60
2019-03-11T06:36:08.430Z,85.72
2019-03-11T06:38:43.290Z,85.86
2019-03-11T06:41:35.699Z,85.97
2019-03-11T06:44:10.586Z,86.05
2019-03-11T06:46:42.445Z,86.17
2019-03-11T06:50:11.070Z,86.25
2019-03-11T06:51:58.762Z,86.58
2019-03-11T06:54:33.860Z,86.58
2019-03-11T06:57:04.576Z,86.34
2019-03-11T06:59:40.563Z,86.42
2019-03-11T07:02:09.939Z,86.35
2019-03-11T07:05:39.956Z,86.37
2019-03-11T07:07:21.453Z,86.37
2019-03-11T07:10:27.547Z,86.32
2019-03-11T07:13:09.473Z,85.86
2019-03-11T07:15:40.005Z,85.34
2019-03-11T07:18:18.133Z,84.90
2019-03-11T07:20:45.299Z,84.29
2019-03-11T07:23:30.148Z,84.08
2019-03-11T07:26:03.016Z,84.02
2019-03-11T07:28:34.911Z,84.12
2019-03-11T07:31:12.512Z,84.28
2019-03-11T07:33:46.759Z,84.48
2019-03-11T07:36:17.418Z,84.59
2019-03-11T07:38:49.117Z,84.65
2019-03-11T07:41:21.213Z,84.71
2019-03-11T07:43:53.367Z,84.83
2019-03-11T07:46:25.357Z,84.93
2019-03-11T07:48:56.737Z,85.01
2019-03-11T07:51:27.441Z,85.07
2019-03-11T07:54:00.461Z,85.13
2019-03-11T07:56:32.192Z,85.05
2019-03-11T07:59:05.698Z,84.61
2019-03-11T08:01:37.738Z,84.60
2019-03-11T08:04:09.990Z,84.29
2019-03-11T08:06:40.621Z,83.95
2019-03-11T08:12:16.233Z,84.00
2019-03-11T08:15:13.484Z,83.65
2019-03-11T08:17:24.032Z,82.76
2019-03-11T08:20:10.316Z,81.67
2019-03-11T08:22:52.018Z,80.89
2019-03-11T08:25:23.672Z,81.04
2019-03-11T08:28:58.949Z,81.18
2019-03-11T08:30:43.965Z,80.63
2019-03-11T08:33:45.959Z,80.50
2019-03-11T08:36:18.178Z,78.96
2019-03-11T08:38:50.984Z,77.20
2019-03-11T08:49:05.873Z,65.93
2019-03-11T08:51:30.958Z,61.64
2019-03-11T08:54:04.751Z,62.98
2019-03-11T08:56:36.955Z,65.96
2019-03-11T08:59:08.881Z,67.17
2019-03-11T09:01:39.338Z,69.98
2019-03-11T09:04:11.415Z,70.81
2019-03-11T09:06:43.497Z,70.99
2019-03-11T09:09:15.489Z,70.99
2019-03-11T09:11:45.769Z,71.02
2019-03-11T09:14:56.664Z,70.23
2019-03-11T09:17:30.930Z,68.70
2019-03-11T09:20:01.227Z,68.49
2019-03-11T09:22:32.653Z,64.79
2019-03-11T09:25:11.272Z,62.65
2019-03-11T09:27:42.171Z,59.48
2019-03-11T09:30:16.324Z,58.56
2019-03-11T09:33:04.466Z,60.88
2019-03-11T09:35:35.010Z,60.20
2019-03-11T09:38:05.930Z,59.19
2019-03-11T09:40:36.219Z,57.89
2019-03-11T09:43:13.965Z,61.00
2019-03-11T09:45:44.310Z,60.12
2019-03-11T09:48:20.038Z,57.82
2019-03-11T09:50:50.371Z,59.79
2019-03-11T09:53:24.282Z,60.83
2019-03-11T09:55:56.224Z,62.26
2019-03-11T09:58:32.495Z,61.30
2019-03-11T10:01:02.395Z,53.38
2019-03-11T10:03:32.737Z,54.51
2019-03-11T10:06:04.733Z,55.51
2019-03-11T10:08:35.726Z,47.13
2019-03-11T10:11:08.669Z,47.13
2019-03-11T10:13:38.978Z,46.18
2019-03-11T10:16:13.542Z,44.95
2019-03-11T10:18:45.895Z,44.04
2019-03-11T10:21:22.793Z,46.38
2019-03-11T10:23:54.738Z,48.53
2019-03-11T10:26:28.402Z,52.12
2019-03-11T10:28:58.969Z,49.70
2019-03-11T10:31:30.342Z,49.59
2019-03-11T10:34:00.658Z,50.65
2019-03-11T10:36:30.954Z,52.25
2019-03-11T10:39:04.053Z,52.35
2019-03-11T10:41:37.201Z,49.25
2019-03-11T10:44:08.160Z,41.84
2019-03-11T10:46:41.301Z,38.85
2019-03-11T10:49:11.869Z,40.86
2019-03-11T10:51:43.266Z,46.44
2019-03-11T10:54:15.482Z,48.03
2019-03-11T10:56:56.516Z,45.13
2019-03-11T10:59:26.898Z,41.58
2019-03-11T11:01:58.512Z,43.42
2019-03-11T11:04:28.850Z,46.01
2019-03-11T11:06:59.310Z,48.82
2019-03-11T11:09:29.901Z,50.77
2019-03-11T11:12:00.531Z,51.55
2019-03-11T11:14:33.747Z,51.83
2019-03-11T11:19:46.677Z,53.01
2019-03-11T11:22:14.172Z,52.15
2019-03-11T11:24:47.113Z,51.60
2019-03-11T11:27:17.468Z,50.29
2019-03-11T11:29:48.913Z,49.30
2019-03-11T11:32:21.008Z,48.96
2019-03-11T11:35:04.456Z,50.71
2019-03-11T11:37:27.231Z,51.60
2019-03-11T11:39:57.801Z,51.18
2019-03-11T11:42:28.089Z,51.31
2019-03-11T11:45:01.482Z,52.36
2019-03-11T11:47:31.767Z,50.86
2019-03-11T11:50:06.940Z,50.66
2019-03-11T11:52:38.862Z,49.02
2019-03-11T11:55:14.563Z,47.51
2019-03-11T11:57:48.133Z,45.68
2019-03-11T12:00:26.635Z,45.88
2019-03-11T12:02:57.694Z,45.72
2019-03-11T12:05:29.451Z,45.93
2019-03-11T12:08:00.521Z,44.90
2019-03-11T12:10:33.971Z,45.00
2019-03-11T12:13:04.483Z,43.95
2019-03-11T12:15:34.887Z,43.95
2019-03-11T12:18:07.072Z,45.36
2019-03-11T12:20:39.506Z,47.58
2019-03-11T12:23:12.394Z,57.53
2019-03-11T12:25:42.722Z,57.53
2019-03-11T12:28:16.823Z,56.99
2019-03-11T12:30:48.883Z,56.71
2019-03-11T12:33:21.393Z,56.98
2019-03-11T12:35:53.298Z,52.26
2019-03-11T12:38:23.779Z,50.23
2019-03-11T12:40:54.120Z,49.20
2019-03-11T12:43:25.735Z,48.46
2019-03-11T12:45:57.452Z,48.04
2019-03-11T12:48:29.694Z,47.50
2019-03-11T12:51:01.965Z,47.84
2019-03-11T12:53:34.516Z,47.84
2019-03-11T12:56:11.925Z,49.60
2019-03-11T12:58:44.265Z,53.71
2019-03-11T13:01:17.991Z,53.71
2019-03-11T13:03:50.336Z,58.24
2019-03-11T13:06:20.833Z,57.89
2019-03-11T13:08:52.402Z,60.10
2019-03-11T13:11:22.792Z,56.34
2019-03-11T13:13:53.375Z,56.30
2019-03-11T13:16:23.711Z,53.71
2019-03-11T13:18:56.909Z,53.02
2019-03-11T13:21:38.457Z,53.03
2019-03-11T13:24:09.381Z,53.79
2019-03-11T13:26:41.336Z,55.70
2019-03-11T13:29:11.892Z,56.36
2019-03-11T13:31:45.658Z,56.36
2019-03-11T13:34:18.899Z,56.63
2019-03-11T13:36:50.301Z,57.49
2019-03-11T13:39:25.231Z,63.08
2019-03-11T13:41:55.661Z,70.37
2019-03-11T13:44:27.384Z,75.70
2019-03-11T13:46:59.214Z,75.70
2019-03-11T13:49:36.714Z,77.45
2019-03-11T13:55:26.149Z,79.03
2019-03-11T13:58:06.422Z,77.42
2019-03-11T14:03:49.383Z,68.20
2019-03-11T14:06:29.172Z,63.39
2019-03-11T14:08:54.694Z,62.22
2019-03-11T14:11:28.269Z,60.88
2019-03-11T14:13:58.924Z,60.79
2019-03-11T14:16:31.908Z,64.53
2019-03-11T14:19:02.494Z,65.00
2019-03-11T14:21:35.685Z,65.54
2019-03-11T14:24:07.620Z,62.66
2019-03-11T14:26:57.032Z,60.72
2019-03-11T14:29:27.330Z,59.55
2019-03-11T14:32:03.327Z,58.45
2019-03-11T14:34:33.636Z,56.60
2019-03-11T14:37:09.755Z,55.30
2019-03-11T14:39:49.191Z,55.25
2019-03-11T14:42:24.125Z,60.38
2019-03-11T14:45:14.160Z,60.38
2019-03-11T14:47:44.724Z,61.97
2019-03-11T14:50:16.754Z,61.38
2019-03-11T14:52:47.623Z,60.29
2019-03-11T14:55:19.738Z,60.39
2019-03-11T14:57:52.546Z,60.22
2019-03-11T15:00:30.445Z,60.28
2019-03-11T15:03:03.909Z,61.16
2019-03-11T15:05:47.093Z,62.20
2019-03-11T15:08:12.611Z,62.20
2019-03-11T15:10:57.021Z,60.59
2019-03-11T15:13:27.373Z,60.47
2019-03-11T15:16:09.511Z,59.57
2019-03-11T15:18:41.489Z,59.88
2019-03-11T15:21:20.032Z,59.24
2019-03-11T15:23:47.054Z,59.14
2019-03-11T15:26:36.609Z,58.48
2019-03-11T15:29:11.160Z,57.51
2019-03-11T15:31:41.859Z,56.32
2019-03-11T15:34:31.408Z,56.88
2019-03-11T15:37:04.145Z,58.10
2019-03-11T15:40:07.539Z,57.92
2019-03-11T15:42:36.560Z,58.41
2019-03-11T15:45:18.885Z,56.98
2019-03-11T15:47:56.851Z,56.67
2019-03-11T15:50:27.624Z,56.92
2019-03-11T15:52:58.016Z,56.55
2019-03-11T15:55:33.705Z,56.70
2019-03-11T15:58:06.090Z,57.77
2019-03-11T16:00:38.781Z,59.67
2019-03-11T16:03:10.802Z,58.56
2019-03-11T16:05:45.809Z,59.20
2019-03-11T16:08:15.325Z,58.84
2019-03-11T16:10:50.978Z,58.43
2019-03-11T16:13:21.336Z,58.43
2019-03-11T16:15:52.027Z,58.02
2019-03-11T16:18:23.504Z,57.25
2019-03-11T16:20:54.116Z,57.30
2019-03-11T16:23:45.883Z,57.33
2019-03-11T16:26:18.982Z,58.06
2019-03-11T16:28:49.611Z,56.75
2019-03-11T16:31:19.968Z,56.76
2019-03-11T16:33:50.718Z,58.70
2019-03-11T16:36:24.450Z,59.82
2019-03-11T16:38:54.858Z,61.37
2019-03-11T16:41:29.834Z,62.20
2019-03-11T16:44:04.870Z,64.45
2019-03-11T16:46:35.591Z,65.63
2019-03-11T16:49:29.451Z,67.27
2019-03-11T16:51:39.947Z,70.08
2019-03-11T16:54:15.022Z,71.34
2019-03-11T16:56:45.433Z,73.08
2019-03-11T16:59:20.313Z,76.51
2019-03-11T17:02:26.876Z,78.02
2019-03-11T17:04:42.817Z,78.34
2019-03-11T17:07:17.535Z,79.21
2019-03-11T17:09:48.172Z,81.37
2019-03-11T17:12:21.528Z,81.37
2019-03-11T17:14:52.016Z,81.57
2019-03-11T17:17:22.535Z,82.15
2019-03-11T17:19:54.913Z,82.54
2019-03-11T17:22:32.093Z,82.72
2019-03-11T17:25:07.067Z,83.10
2019-03-11T17:27:40.622Z,83.29
2019-03-11T17:30:26.292Z,83.51
2019-03-11T17:32:53.303Z,83.65
2019-03-11T17:35:44.732Z,83.68
2019-03-11T17:38:17.754Z,83.84
2019-03-11T17:40:49.444Z,83.84
2019-03-11T17:43:22.393Z,83.74
2019-03-11T17:45:54.724Z,83.73
2019-03-11T17:48:44.580Z,83.61
2019-03-11T17:51:23.442Z,83.39
2019-03-11T17:53:57.273Z,83.23
2019-03-11T17:56:47.933Z,82.89
2019-03-11T17:59:21.161Z,82.34
2019-03-11T18:01:51.844Z,81.77
2019-03-11T18:04:27.308Z,81.61
2019-03-11T18:06:57.793Z,81.26
2019-03-11T18:09:32.254Z,80.69
2019-03-11T18:12:10.746Z,80.69
2019-03-11T18:14:41.320Z,79.03
2019-03-11T18:18:03.670Z,76.66
2019-03-11T18:19:54.198Z,75.30
2019-03-11T18:22:34.739Z,75.39
2019-03-11T18:25:51.141Z,77.11
2019-03-11T18:27:31.019Z,79.24
2019-03-11T18:30:05.988Z,80.92
2019-03-11T18:32:35.545Z,81.78
2019-03-11T18:35:30.511Z,82.24
2019-03-11T18:38:10.897Z,82.88
2019-03-11T18:40:38.600Z,83.27
2019-03-11T18:43:20.659Z,83.80
2019-03-11T18:45:49.445Z,83.96
2019-03-11T18:48:26.363Z,84.16
2019-03-11T18:51:11.406Z,84.65
2019-03-11T18:53:49.015Z,84.87
2019-03-11T18:56:34.943Z,85.17
2019-03-11T18:59:11.242Z,85.21
2019-03-11T19:01:44.010Z,85.21
2019-03-11T19:04:33.565Z,85.51
2019-03-11T19:07:12.011Z,85.62
2019-03-11T19:09:45.230Z,85.79
2019-03-11T19:12:16.594Z,85.92
2019-03-11T19:15:00.873Z,86.05
2019-03-11T19:18:00.811Z,86.16
2019-03-11T19:20:59.655Z,86.20
2019-03-11T19:23:33.192Z,86.29
2019-03-11T19:26:05.140Z,86.38
2019-03-11T19:28:37.411Z,86.42
2019-03-11T19:31:09.340Z,86.52
2019-03-11T19:33:39.928Z,86.68
2019-03-11T19:36:10.476Z,86.77
2019-03-11T19:38:52.790Z,86.89
2019-03-11T19:41:36.873Z,86.96
2019-03-11T19:44:04.277Z,87.00
2019-03-11T19:46:37.073Z,87.00
2019-03-11T19:49:07.705Z,86.99
2019-03-11T19:51:52.185Z,86.92
2019-03-11T19:54:24.113Z,86.85
2019-03-11T19:56:56.265Z,86.82
2019-03-11T19:59:26.914Z,86.73
2019-03-11T20:01:57.952Z,86.58
2019-03-11T20:04:34.113Z,86.54
2019-03-11T20:07:05.151Z,86.47
2019-03-11T20:09:44.043Z,86.16
2019-03-11T20:12:24.276Z,85.54
2019-03-11T20:14:54.696Z,85.54
2019-03-11T20:17:51.911Z,85.43
2019-03-11T20:20:22.724Z,85.05
2019-03-11T20:22:53.229Z,84.32
2019-03-11T20:25:36.645Z,83.75
2019-03-11T20:28:03.894Z,82.64
2019-03-11T20:30:40.370Z,80.71
2019-03-11T20:33:18.866Z,79.29
2019-03-11T20:35:49.557Z,76.65
2019-03-11T20:38:23.753Z,75.60
2019-03-11T20:40:55.904Z,75.13
2019-03-11T20:43:34.584Z,73.92
2019-03-11T20:46:07.177Z,73.92
2019-03-11T20:48:39.004Z,74.20
2019-03-11T20:51:10.599Z,74.08
2019-03-11T20:53:41.288Z,74.10
2019-03-11T20:56:18.808Z,73.64
2019-03-11T20:58:47.638Z,74.25
2019-03-11T21:01:36.461Z,74.64
2019-03-11T21:04:10.423Z,75.58
2019-03-11T21:06:40.909Z,75.81
2019-03-11T21:09:20.271Z,76.36
2019-03-11T21:11:54.839Z,76.72
2019-03-11T21:14:25.397Z,77.04
2019-03-11T21:16:57.905Z,76.66
2019-03-11T21:19:28.639Z,76.51
2019-03-11T21:22:03.575Z,76.56
2019-03-11T21:24:37.993Z,76.40
2019-03-11T21:27:11.637Z,75.91
2019-03-11T21:29:55.181Z,75.89
2019-03-11T21:32:30.302Z,75.80
2019-03-11T21:35:06.988Z,75.67
2019-03-11T21:37:39.239Z,75.90
2019-03-11T21:40:14.720Z,76.42
2019-03-11T21:43:27.098Z,76.78
2019-03-11T21:46:41.804Z,77.35
2019-03-11T21:48:47.948Z,78.76
2019-03-11T21:51:34.500Z,78.76
2019-03-11T21:54:12.304Z,78.94
2019-03-11T21:56:42.766Z,79.24
2019-03-11T21:59:44.385Z,79.41
2019-03-11T22:01:48.385Z,79.82
2019-03-11T22:04:33.408Z,80.07
2019-03-11T22:07:11.514Z,80.07
2019-03-11T22:09:45.477Z,79.76
2019-03-11T22:12:23.123Z,79.51
2019-03-11T22:15:15.187Z,79.54
2019-03-11T22:17:42.623Z,79.55
2019-03-11T22:20:53.047Z,79.34
2019-03-11T22:23:35.641Z,78.90
2019-03-11T22:26:06.004Z,78.57
2019-03-11T22:28:49.625Z,78.50
2019-03-11T22:31:21.252Z,78.52
2019-03-11T22:33:54.403Z,78.62
2019-03-11T22:36:31.777Z,78.55
2019-03-11T22:39:05.265Z,78.51
2019-03-11T22:41:42.956Z,78.41
2019-03-11T22:44:23.802Z,78.46
2019-03-11T22:46:46.563Z,78.53
2019-03-11T22:49:23.633Z,78.80
2019-03-11T22:51:55.559Z,78.91
2019-03-11T22:54:45.259Z,78.59
2019-03-11T22:57:18.767Z,78.57
2019-03-11T22:59:51.851Z,78.87
2019-03-11T23:02:39.768Z,79.10
2019-03-11T23:04:57.919Z,79.45
2019-03-11T23:07:32.869Z,79.97
2019-03-11T23:10:13.617Z,80.22
2019-03-11T23:12:40.779Z,80.21
2019-03-11T23:15:21.196Z,80.40
2019-03-11T23:17:53.488Z,80.45
2019-03-11T23:20:25.600Z,80.26
2019-03-11T23:22:59.413Z,80.25
2019-03-11T23:25:29.784Z,80.24
2019-03-11T23:28:04.600Z,80.36
2019-03-11T23:30:36.569Z,80.39
2019-03-11T23:33:08.084Z,80.43
2019-03-11T23:35:38.403Z,80.53
2019-03-11T23:38:13.312Z,80.52
2019-03-11T23:41:13.645Z,80.52
2019-03-11T23:43:45.642Z,80.88
2019-03-11T23:46:19.469Z,80.85
2019-03-11T23:48:51.159Z,80.86
2019-03-11T23:51:22.155Z,80.85
2019-03-11T23:53:54.216Z,80.99
2019-03-11T23:56:26.106Z,80.99
2019-03-11T23:59:19.687Z,81.33
